Portada
METAR-TAF:

METAR-TAF

Aeropuertos :

Aeropuerto Internacional Aden Adde

Mogadiscio, Somalia

latitud: 02-02N, longitud: 045-21E, altitud: 9 m

Observación

El informe se hizo hace 58 minutos, a las 05:00 UTC
Viento 9 kt del suroeste
Temperatura 28°C
Humedad 70%
Presión 1012 hPa
Visibilidad 10 km o más
Cielo nuboso a una altura de 1900 ft

METAR: HCMM 310500Z 22009KT 9999 BKN019 28/22 Q1012

Hora: 08:58 (05:58 UTC)


TAF: falta

Observaciones y pronósticos meteorológicos de más de 4000 aeropuertos (mensajes METAR y TAF).

Los puntos amarillos y rojos representan las estaciones disponibles.

Ponga el ratón en el punto deseado para ver el nombre de la estación.

Haga clic para ver las observaciones y los pronósticos meteorológicos.

Para cambiar el mapa : haga clic en los botones verdes con una cruz de color negro para hacer un zoom, en el botón verde con un guión para alejar o en las flechas verdes para mapas adyacentes.


METAR-TAF: